createdAt,value
2022-08-31T00:02:41.021Z,20.8
2022-08-31T00:07:45.250Z,20.7
2022-08-31T00:12:50.714Z,20.7
2022-08-31T00:17:59.718Z,20.6
2022-08-31T00:23:02.107Z,20.6
2022-08-31T00:28:04.595Z,20.6
2022-08-31T00:33:07.330Z,20.3
2022-08-31T00:38:10.027Z,20.4
2022-08-31T00:43:12.401Z,20.3
2022-08-31T00:48:15.780Z,20.3
2022-08-31T00:53:19.013Z,20.3
2022-08-31T00:58:21.775Z,20.2
2022-08-31T01:03:24.393Z,20.1
2022-08-31T01:08:32.987Z,20
2022-08-31T01:13:35.534Z,19.9
2022-08-31T01:18:38.257Z,19.9
2022-08-31T01:23:41.179Z,19.9
2022-08-31T01:28:43.870Z,19.8
2022-08-31T01:33:46.219Z,19.7
2022-08-31T01:38:54.789Z,19.7
2022-08-31T01:43:57.335Z,19.6
2022-08-31T01:48:59.936Z,19.6
2022-08-31T01:54:02.482Z,19.5
2022-08-31T01:59:10.111Z,19.4
2022-08-31T02:04:12.698Z,19.3
2022-08-31T02:09:15.654Z,19.3
2022-08-31T02:14:17.977Z,19.3
2022-08-31T02:19:20.279Z,19.3
2022-08-31T02:24:23.203Z,19.1
2022-08-31T02:29:26.089Z,19.1
2022-08-31T02:34:28.469Z,19
2022-08-31T02:39:31.231Z,19
2022-08-31T02:44:33.509Z,18.9
2022-08-31T02:49:35.924Z,18.9
2022-08-31T02:54:39.022Z,18.8
2022-08-31T02:59:41.445Z,18.8
2022-08-31T03:04:43.814Z,18.7
2022-08-31T03:09:46.728Z,18.6
2022-08-31T03:14:49.659Z,18.6
2022-08-31T03:19:53.292Z,18.6
2022-08-31T03:24:56.012Z,18.6
2022-08-31T03:29:58.501Z,18.5
2022-08-31T03:35:01.384Z,18.4
2022-08-31T03:40:05.402Z,18.4
2022-08-31T03:45:08.076Z,18.3
2022-08-31T03:50:10.339Z,18.3
2022-08-31T03:55:13.150Z,18.3
2022-08-31T04:00:15.787Z,18.2
2022-08-31T04:05:18.787Z,18.2
2022-08-31T04:15:22.162Z,18.1
2022-08-31T04:20:32.069Z,18.2
2022-08-31T04:25:25.022Z,18.3
2022-08-31T04:30:27.506Z,18.3
2022-08-31T04:35:29.886Z,18.5
2022-08-31T04:40:33.812Z,18.8
2022-08-31T04:45:36.509Z,19
2022-08-31T04:50:44.578Z,19.2
2022-08-31T04:55:47.134Z,19.4
2022-08-31T05:00:52.996Z,19.8
2022-08-31T05:05:55.452Z,19.7
2022-08-31T05:10:57.898Z,20.1
2022-08-31T05:16:00.745Z,20.7
2022-08-31T05:21:03.202Z,20.7
2022-08-31T05:26:05.895Z,21
2022-08-31T05:31:10.933Z,20.9
2022-08-31T05:36:13.325Z,20.9
2022-08-31T05:41:16.047Z,22
2022-08-31T05:46:18.650Z,22.4
2022-08-31T05:51:21.582Z,23.1
2022-08-31T05:56:24.762Z,23.6
2022-08-31T06:01:28.377Z,24.1
2022-08-31T06:06:31.241Z,24.3
2022-08-31T06:11:34.115Z,24.1
2022-08-31T06:16:36.996Z,24.3
2022-08-31T06:21:51.622Z,25.3
2022-08-31T06:26:44.281Z,25.7
2022-08-31T06:31:47.192Z,25.8
2022-08-31T06:36:49.736Z,25.8
2022-08-31T06:41:52.821Z,25.4
2022-08-31T06:46:55.501Z,26.7
2022-08-31T06:51:58.263Z,27.4
2022-08-31T06:57:01.118Z,26.5
2022-08-31T07:02:04.128Z,26.6
2022-08-31T07:07:06.855Z,27.9
2022-08-31T07:12:09.591Z,27.8
2022-08-31T07:17:12.166Z,27.9
2022-08-31T07:22:17.502Z,26.9
2022-08-31T07:27:20.571Z,27
2022-08-31T07:32:23.373Z,27.6
2022-08-31T07:37:25.707Z,27.6
2022-08-31T07:42:28.082Z,28
2022-08-31T07:47:31.093Z,29.2
2022-08-31T07:52:34.058Z,29.1
2022-08-31T07:57:36.403Z,30.2
2022-08-31T08:02:39.594Z,30.1
2022-08-31T08:07:43.396Z,30.7
2022-08-31T08:12:46.257Z,30.6
2022-08-31T08:17:48.586Z,31.2
2022-08-31T08:22:58.123Z,31.3
2022-08-31T08:28:05.840Z,31.3
2022-08-31T08:33:14.913Z,31.8
2022-08-31T08:38:17.220Z,31.8
2022-08-31T08:43:20.467Z,33.8
2022-08-31T08:48:24.310Z,33.3
2022-08-31T08:53:27.035Z,34.6
2022-08-31T08:58:29.438Z,34.5
2022-08-31T09:03:32.539Z,34.4
2022-08-31T09:08:36.591Z,34.3
2022-08-31T09:13:38.908Z,34.6
2022-08-31T09:18:41.248Z,35.6
2022-08-31T09:23:43.533Z,34.9
2022-08-31T09:28:45.916Z,34.2
2022-08-31T09:33:48.598Z,37.4
2022-08-31T09:38:51.155Z,37.3
2022-08-31T09:43:54.400Z,39.6
2022-08-31T09:48:57.387Z,40.1
2022-08-31T09:54:00.040Z,40.3
2022-08-31T10:00:12.767Z,38.8
2022-08-31T10:05:15.637Z,37.8
2022-08-31T10:10:33.508Z,40.7
2022-08-31T10:15:25.821Z,40.7
2022-08-31T10:20:32.540Z,39.9
2022-08-31T10:25:35.207Z,40.2
2022-08-31T10:30:38.151Z,40.7
2022-08-31T10:35:40.805Z,39.2
2022-08-31T10:40:43.979Z,40.8
2022-08-31T10:45:47.142Z,42.1
2022-08-31T10:50:49.684Z,42
2022-08-31T10:55:52.321Z,43
2022-08-31T11:00:55.104Z,42.3
2022-08-31T11:05:59.364Z,42.4
2022-08-31T11:11:02.196Z,42.4
2022-08-31T11:16:04.886Z,41.1
2022-08-31T11:21:07.593Z,41.1
2022-08-31T11:26:09.970Z,40
2022-08-31T11:31:12.962Z,42.1
2022-08-31T11:36:15.389Z,42
2022-08-31T11:41:18.345Z,39.7
2022-08-31T11:46:21.428Z,40.3
2022-08-31T11:51:28.913Z,40.3
2022-08-31T11:56:31.261Z,40.5
2022-08-31T12:01:35.489Z,37.1
2022-08-31T12:06:37.838Z,36.9
2022-08-31T12:11:40.189Z,34.4
2022-08-31T12:16:43.404Z,32.1
2022-08-31T12:21:46.272Z,32.2
2022-08-31T12:26:48.608Z,32.2
2022-08-31T12:31:51.421Z,33.6
2022-08-31T12:41:55.631Z,35.2
2022-08-31T12:46:58.477Z,34.5
2022-08-31T12:52:00.829Z,34.5
2022-08-31T12:57:03.516Z,34.9
2022-08-31T13:02:07.183Z,33.8
2022-08-31T13:07:12.592Z,33.7
2022-08-31T13:12:15.080Z,33.1
2022-08-31T13:17:17.581Z,32.4
2022-08-31T13:22:19.919Z,32.3
2022-08-31T13:27:22.586Z,33.3
2022-08-31T13:32:25.206Z,33
2022-08-31T13:37:27.924Z,32.9
2022-08-31T13:42:30.611Z,32.5
2022-08-31T13:47:33.439Z,31.9
2022-08-31T13:52:38.742Z,31.9
2022-08-31T13:57:41.057Z,31.8
2022-08-31T14:02:44.272Z,31
2022-08-31T14:07:46.661Z,30.9
2022-08-31T14:12:49.006Z,30.9
2022-08-31T14:18:26.874Z,31.4
2022-08-31T14:22:59.635Z,31.4
2022-08-31T14:28:02.111Z,31.2
2022-08-31T14:33:05.715Z,30.6
2022-08-31T14:38:08.041Z,30.5
2022-08-31T14:43:10.721Z,30.4
2022-08-31T14:48:13.402Z,30.2
2022-08-31T14:53:16.157Z,30.1
2022-08-31T14:58:19.820Z,29.8
2022-08-31T15:03:23.379Z,29.6
2022-08-31T15:08:40.237Z,29.4
2022-08-31T15:13:35.211Z,29.4
2022-08-31T15:18:37.618Z,29.3
2022-08-31T15:23:40.155Z,29.2
2022-08-31T15:28:42.975Z,29.1
2022-08-31T15:33:45.413Z,29
2022-08-31T15:38:47.783Z,29.2
2022-08-31T15:43:50.157Z,29.2
2022-08-31T15:48:52.641Z,29.3
2022-08-31T15:54:23.997Z,28.7
2022-08-31T15:58:56.550Z,28.5
2022-08-31T16:03:59.667Z,28.3
2022-08-31T16:09:01.973Z,28.2
2022-08-31T16:14:04.255Z,27.9
2022-08-31T16:19:06.958Z,27.6
2022-08-31T16:24:09.272Z,27.6
2022-08-31T16:29:11.963Z,27.3
2022-08-31T16:34:14.902Z,27.1
2022-08-31T16:39:17.633Z,27.1
2022-08-31T16:44:22.680Z,26.9
2022-08-31T16:49:21.636Z,26.8
2022-08-31T16:54:23.975Z,26.7
2022-08-31T16:59:26.606Z,26.6
2022-08-31T17:04:59.661Z,26.3
2022-08-31T17:09:32.455Z,26.2
2022-08-31T17:14:34.866Z,26.1
2022-08-31T17:19:39.022Z,25.9
2022-08-31T17:24:41.325Z,25.8
2022-08-31T17:29:46.856Z,25.6
2022-08-31T17:34:50.334Z,25.4
2022-08-31T17:39:53.330Z,25.3
2022-08-31T17:44:55.880Z,25.2
2022-08-31T17:49:58.167Z,25.1
2022-08-31T17:55:00.775Z,24.9
2022-08-31T18:00:03.294Z,24.9
2022-08-31T18:05:13.733Z,24.7
2022-08-31T18:10:06.695Z,24.6
2022-08-31T18:15:09.011Z,24.6
2022-08-31T18:20:11.441Z,24.5
2022-08-31T18:25:14.410Z,24.2
2022-08-31T18:30:17.344Z,24.1
2022-08-31T18:35:19.959Z,24.1
2022-08-31T18:40:22.674Z,24
2022-08-31T18:45:25.878Z,23.9
2022-08-31T18:50:28.460Z,23.8
2022-08-31T18:55:36.552Z,23.7
2022-08-31T19:00:39.797Z,23.6
2022-08-31T19:05:42.574Z,23.5
2022-08-31T19:10:45.504Z,23.4
2022-08-31T19:15:52.497Z,23.3
2022-08-31T19:20:59.856Z,23.2
2022-08-31T19:26:03.485Z,23.2
2022-08-31T19:31:08.773Z,23.1
2022-08-31T19:36:11.785Z,23
2022-08-31T19:46:17.851Z,22.8
2022-08-31T19:51:20.778Z,22.8
2022-08-31T19:56:23.635Z,22.8
2022-08-31T20:01:27.983Z,22.8
2022-08-31T20:06:31.569Z,22.7
2022-08-31T20:11:34.376Z,22.7
2022-08-31T20:16:37.343Z,22.7
2022-08-31T20:21:40.031Z,22.6
2022-08-31T20:26:53.840Z,22.5
2022-08-31T20:31:48.411Z,22.5
2022-08-31T20:36:51.327Z,22.4
2022-08-31T20:41:54.161Z,22.3
2022-08-31T20:46:57.050Z,22.2
2022-08-31T20:52:02.515Z,22.1
2022-08-31T20:57:05.596Z,22.1
2022-08-31T21:02:08.355Z,21.9
2022-08-31T21:07:10.865Z,21.9
2022-08-31T21:12:22.635Z,21.7
2022-08-31T21:17:15.372Z,21.7
2022-08-31T21:22:18.034Z,21.7
2022-08-31T21:27:20.376Z,21.7
2022-08-31T21:32:23.091Z,21.6
2022-08-31T21:37:25.916Z,21.4
2022-08-31T21:42:28.487Z,21.4
2022-08-31T21:47:31.180Z,21.3
2022-08-31T21:52:33.931Z,21.1
2022-08-31T21:57:36.468Z,21
2022-08-31T22:02:39.259Z,20.9
2022-08-31T22:07:45.880Z,20.8
2022-08-31T22:12:48.537Z,20.6
2022-08-31T22:19:01.921Z,20.5
2022-08-31T22:22:55.322Z,20.5
2022-08-31T22:27:58.157Z,20.5
2022-08-31T22:33:01.821Z,20.4
2022-08-31T22:38:04.664Z,20.4
2022-08-31T22:43:10.131Z,20.4
2022-08-31T22:48:12.810Z,20.4
2022-08-31T22:53:15.570Z,20.4
2022-08-31T22:58:18.321Z,20.3
2022-08-31T23:03:20.852Z,20.3
2022-08-31T23:13:24.999Z,20.2
2022-08-31T23:18:27.541Z,20.2
2022-08-31T23:23:30.361Z,20.2
2022-08-31T23:28:32.632Z,20.1
2022-08-31T23:33:35.138Z,20.1
2022-08-31T23:38:37.741Z,20.1
2022-08-31T23:43:40.153Z,20
2022-08-31T23:48:44.190Z,20
2022-08-31T23:53:47.571Z,20
2022-08-31T23:58:49.910Z,19.9
